This is the latest recevied weather packets stored in our database for station/object N5ATR. If no packets are shown the sender has not sent any weather packets the latest 10 day(s).
| Time | Temp. | Humidity | Pressure | Rain* | Wind** | Luminosity | Snow |
|---|---|---|---|---|---|---|---|
| 1778028643 | 11.11° C | 58% | 1010 hPa | 0 mm | - | 44 W/m² | - |
| 1778028341 | 11.11° C | 57% | 1009.6 hPa | 0 mm | - | 29 W/m² | - |
| 1778028037 | 11.67° C | 56% | 1009.6 hPa | 0 mm | - | 41 W/m² | - |
| 1778027734 | 11.67° C | 56% | 1009.7 hPa | 0 mm | - | 37 W/m² | - |
| 1778027430 | 11.67° C | 55% | 1009.3 hPa | 0 mm | - | 35 W/m² | - |
| 1778027126 | 12.22° C | 54% | 1009.6 hPa | 0 mm | - | 65 W/m² | - |
| 1778026822 | 11.67° C | 55% | 1009.6 hPa | 0 mm | - | 69 W/m² | - |
| 1778026519 | 12.22° C | 53% | 1009.6 hPa | 0 mm | - | 48 W/m² | - |
| 1778026216 | 13.33° C | 50% | 1009.7 hPa | 0 mm | - | 111 W/m² | - |
| 1778025914 | 13.33° C | 48% | 1009.3 hPa | 0 mm | - | 170 W/m² | - |
| 1778025611 | 13.89° C | 48% | 1009.3 hPa | 0 mm | - | 228 W/m² | - |
| 1778025308 | 13.33° C | 50% | 1009.3 hPa | 0 mm | - | 281 W/m² | - |
| 1778025005 | 13.89° C | 49% | 1009.6 hPa | 0 mm | - | 253 W/m² | - |
| 1778024702 | 13.89° C | 48% | 1009.5 hPa | 0 mm | - | 254 W/m² | - |
| 1778024399 | 14.44° C | 46% | 1009.5 hPa | 0 mm | - | 269 W/m² | - |
| 1778024096 | 14.44° C | 47% | 1009.3 hPa | 0 mm | - | 281 W/m² | - |
| 1778023793 | 14.44° C | 47% | 1009.5 hPa | 0 mm | - | 298 W/m² | - |
| 1778023492 | 13.89° C | 50% | 1009.6 hPa | 0 mm | - | 308 W/m² | - |
| 1778023188 | 12.78° C | 57% | 1009.3 hPa | 0 mm | - | 330 W/m² | - |
| 1778022886 | 13.33° C | 56% | 1009.3 hPa | 0 mm | - | 345 W/m² | - |
| 1778022584 | 13.33° C | 54% | 1009.6 hPa | 0 mm | - | 362 W/m² | - |
| 1778022281 | 13.33° C | 54% | 1009.5 hPa | 0 mm | - | 376 W/m² | - |
| 1778021977 | 12.78° C | 58% | 1009.3 hPa | 0 mm | - | 389 W/m² | - |
| 1778021674 | 12.22° C | 59% | 1009.6 hPa | 0 mm | - | 404 W/m² | - |
| 1778021370 | 11.67° C | 62% | 1009.6 hPa | 0 mm | - | 425 W/m² | - |
* Rain latest hour (hover to see other rain measurements)
** Current wind speed in m/s (hover to see current wind gust speed)